首页
METAR-TAF:

METAR-TAF

机场 :

梅明根机场

梅明根, 德国

纬度: 47-59-33N, 经度: 10-14-37E, 海拔: 633米

当前天气观测

该预报发布于35分钟前的07:20 UTC
风速8节,风向西
温度 0°C
湿度 93%
气压 1026 hPa
能见度10公里或以上
散云层高于1700英尺
阴天层高于4300英尺

METAR: EDJA 100720Z 27008KT 9999 SCT017 OVC043 00/M01 Q1026

时间: 08:55 (07:55 UTC)

预报

该预报发布于46分钟前的07:09 UTC
预报有效从10日的 07点(UTC)到 10日的 15点(UTC)
风速7节,风向西
能见度10公里或以上
散云层高于2000英尺
短暂存在
从 10日的 07点(UTC)到 10日的 09点(UTC)
能見度: 4000
多云层高于1200英尺
小雪
成为
从 10日的 12点(UTC)到 10日的 15点(UTC)
风速4节,风向西南

TAF: EDJA 100709Z 1007/1015 28007KT 9999 SCT020 TEMPO 1007/1009 4000 -SN BKN012 BECMG 1012/1015 22004KT

超过4000个机场的气象观测和天气预报(METAR&TAF报告)。

可查询的气象台以黄色和红色小点在地图上表示。

将鼠标移到小点上方,可查看气象台名称。

然后点击查看天气观测和预报。

如需切换地图:点击带黑十字的绿色按钮放大地图;点击带横线的绿色按钮缩小地图;或者点击绿色箭头查看邻近地区的地图。


METAR-TAF: